Time;durP1;ratioP1;P1;durP2;ratioP2;P2;SDS_P1;SDS_P2;PMS_P1;PMS_P2;Temp;Humidity;BMP_temperature;BMP_pressure;BME280_temperature;BME280_humidity;BME280_pressure;Samples;Min_cycle;Max_cycle;Signal;HPM_P1;HPM_P2
2021/06/06 00:00:54;;;;;;;;;;;;;;;25.96;34.47;101525.50;6098866;23;96599;-86
2021/06/06 00:03:21;;;;;;;;;;;;;;;25.78;34.71;101526.16;6101656;23;96739;-85
2021/06/06 00:05:54;;;;;;;;;;;;;;;25.80;34.62;101528.69;6075259;23;99563;-86
2021/06/06 00:08:22;;;;;;;;;;;;;;;25.76;34.83;101520.00;6102000;23;98628;-85
2021/06/06 00:10:50;;;;;;;;;;;;;;;25.45;35.24;101523.59;6100959;23;96567;-86
2021/06/06 00:13:19;;;;;;;;;;;;;;;25.43;35.49;101522.88;6102949;23;96724;-85
2021/06/06 00:15:47;;;;;;;;;;;;;;;25.44;35.18;101521.88;6104144;22;100478;-86
2021/06/06 00:18:13;;;;;;;;;;;;;;;25.21;35.66;101525.69;6101018;23;97765;-86
2021/06/06 00:20:40;;;;;;;;;;;;;;;25.38;35.77;101533.25;6100537;23;96832;-85
2021/06/06 00:23:07;;;;;;;;;;;;;;;25.59;35.14;101531.44;6099547;23;96732;-85
2021/06/06 00:25:33;;;;;;;;;;;;;;;25.34;35.42;101532.63;6097575;23;98353;-86
2021/06/06 00:28:01;;;;;;;;;;;;;;;25.16;37.33;101533.31;6098527;23;100259;-84
2021/06/06 00:30:27;;;;;;;;;;;;;;;24.99;38.12;101527.50;6099163;23;96685;-85
2021/06/06 00:32:57;;;;;;;;;;;;;;;25.21;37.89;101528.38;6105383;23;96751;-85
2021/06/06 00:35:23;;;;;;;;;;;;;;;25.06;38.34;101533.25;6083137;23;96751;-85
2021/06/06 00:37:50;;;;;;;;;;;;;;;25.19;38.20;101533.09;6116453;23;97817;-85
2021/06/06 00:40:18;;;;;;;;;;;;;;;25.08;38.14;101538.50;6116459;23;96501;-85
2021/06/06 00:42:44;;;;;;;;;;;;;;;25.18;36.74;101540.34;6092743;23;96014;-86
2021/06/06 00:45:14;;;;;;;;;;;;;;;25.15;36.51;101535.16;6118155;23;98994;-84
2021/06/06 00:47:40;;;;;;;;;;;;;;;25.04;36.69;101531.66;6118813;23;99428;-85
2021/06/06 00:50:09;;;;;;;;;;;;;;;24.79;37.17;101530.97;6115382;23;96373;-86
2021/06/06 00:52:36;;;;;;;;;;;;;;;24.70;36.98;101531.72;6109974;23;96455;-85
2021/06/06 00:55:04;;;;;;;;;;;;;;;24.73;37.51;101530.63;6109758;23;98510;-84
2021/06/06 00:57:32;;;;;;;;;;;;;;;24.81;36.94;101528.16;6072219;23;99233;-84
2021/06/06 01:00:02;;;;;;;;;;;;;;;24.73;37.14;101536.03;6096914;23;96689;-85
2021/06/06 01:02:31;;;;;;;;;;;;;;;24.89;37.04;101531.94;6099980;23;96931;-85
2021/06/06 01:04:57;;;;;;;;;;;;;;;25.00;36.62;101537.34;6098287;23;100897;-85
2021/06/06 01:07:23;;;;;;;;;;;;;;;24.95;37.23;101526.03;6097675;23;98354;-85
2021/06/06 01:09:49;;;;;;;;;;;;;;;25.01;36.48;101530.91;6097436;23;97056;-85
2021/06/06 01:12:20;;;;;;;;;;;;;;;25.13;36.61;101534.47;6098855;23;96728;-84
2021/06/06 01:14:50;;;;;;;;;;;;;;;25.04;36.45;101528.97;6096007;23;99065;-85
2021/06/06 01:17:19;;;;;;;;;;;;;;;24.98;36.97;101528.50;6096815;23;99076;-85
2021/06/06 01:19:49;;;;;;;;;;;;;;;24.95;36.74;101525.16;6098171;23;97046;-85
2021/06/06 01:22:24;;;;;;;;;;;;;;;25.05;36.63;101526.13;6100291;23;97229;-85
2021/06/06 01:24:55;;;;;;;;;;;;;;;24.78;37.45;101531.09;6102097;23;99821;-84
2021/06/06 01:27:22;;;;;;;;;;;;;;;25.14;37.15;101530.75;6097120;23;98124;-84
2021/06/06 01:29:51;;;;;;;;;;;;;;;24.38;39.47;101528.97;6098775;23;96548;-85
2021/06/06 01:32:20;;;;;;;;;;;;;;;24.36;39.61;101522.81;6101026;23;97028;-85
2021/06/06 01:34:49;;;;;;;;;;;;;;;24.25;40.16;101530.06;6100654;23;96853;-85
2021/06/06 01:37:19;;;;;;;;;;;;;;;24.38;40.21;101522.69;6105488;23;99565;-85
2021/06/06 01:39:47;;;;;;;;;;;;;;;24.49;39.78;101528.06;6105306;23;96985;-85
2021/06/06 01:42:17;;;;;;;;;;;;;;;24.66;39.33;101524.88;6100166;23;96865;-85
2021/06/06 01:44:47;;;;;;;;;;;;;;;24.27;39.60;101525.41;6097583;23;101147;-86
2021/06/06 01:47:15;;;;;;;;;;;;;;;24.13;39.93;101529.19;6097998;23;101582;-85
2021/06/06 01:49:43;;;;;;;;;;;;;;;24.02;40.02;101519.25;6100839;23;96600;-85
2021/06/06 01:52:11;;;;;;;;;;;;;;;23.87;40.36;101520.47;6105998;23;96948;-86
2021/06/06 01:54:39;;;;;;;;;;;;;;;24.07;39.92;101516.19;6101958;23;100218;-85
2021/06/06 01:57:07;;;;;;;;;;;;;;;24.12;39.56;101524.75;6102456;23;101246;-85
2021/06/06 01:59:37;;;;;;;;;;;;;;;24.14;39.62;101522.81;6099458;23;96522;-84
2021/06/06 02:02:04;;;;;;;;;;;;;;;24.19;39.26;101526.88;6101037;23;96618;-86
2021/06/06 02:04:30;;;;;;;;;;;;;;;24.11;39.57;101518.50;6100671;23;99040;-86
2021/06/06 02:06:59;;;;;;;;;;;;;;;24.03;39.92;101515.53;6102334;23;98203;-85
2021/06/06 02:09:27;;;;;;;;;;;;;;;23.98;39.65;101517.75;6098211;23;96933;-85
2021/06/06 02:11:54;;;;;;;;;;;;;;;23.86;40.66;101523.28;6099729;23;96743;-85
2021/06/06 02:14:22;;;;;;;;;;;;;;;23.59;41.58;101521.75;6077586;23;98706;-85
2021/06/06 02:16:51;;;;;;;;;;;;;;;23.93;41.01;101519.97;6099787;23;100712;-86
2021/06/06 02:19:17;;;;;;;;;;;;;;;23.55;41.84;101524.81;6100312;23;96700;-85
2021/06/06 02:21:43;;;;;;;;;;;;;;;23.50;42.71;101529.72;6101852;23;96769;-84
2021/06/06 02:24:10;;;;;;;;;;;;;;;23.08;43.83;101523.91;6095791;23;99918;-85
2021/06/06 02:26:38;;;;;;;;;;;;;;;23.32;42.91;101523.84;6072823;23;98902;-85
2021/06/06 02:29:07;;;;;;;;;;;;;;;23.38;43.13;101526.06;6100462;23;96609;-85
2021/06/06 02:31:35;;;;;;;;;;;;;;;23.44;43.49;101522.91;6101551;23;96774;-85
2021/06/06 02:34:06;;;;;;;;;;;;;;;23.22;44.16;101522.84;6101214;23;99635;-85
2021/06/06 02:36:34;;;;;;;;;;;;;;;23.12;43.69;101528.06;6107334;23;99846;-85
2021/06/06 02:39:04;;;;;;;;;;;;;;;23.21;43.22;101531.91;6111479;23;96432;-84
2021/06/06 02:41:34;;;;;;;;;;;;;;;23.25;43.11;101528.84;6111297;23;96462;-84
2021/06/06 02:44:01;;;;;;;;;;;;;;;23.00;43.67;101523.59;6110526;23;96916;-85
2021/06/06 02:46:28;;;;;;;;;;;;;;;23.23;43.02;101522.75;6108770;23;96718;-85
2021/06/06 02:48:57;;;;;;;;;;;;;;;23.29;42.80;101521.41;6111308;23;96980;-85
2021/06/06 02:51:26;;;;;;;;;;;;;;;23.37;42.40;101516.25;6087831;23;96865;-84
2021/06/06 02:53:57;;;;;;;;;;;;;;;23.37;42.34;101522.50;6110016;23;98989;-85
2021/06/06 02:56:27;;;;;;;;;;;;;;;23.15;42.98;101519.75;6110678;23;99609;-83
2021/06/06 02:58:56;;;;;;;;;;;;;;;23.12;43.50;101522.66;6099382;23;96614;-85
2021/06/06 03:01:30;;;;;;;;;;;;;;;22.94;43.72;101518.69;6105184;23;96789;-85
2021/06/06 03:04:05;;;;;;;;;;;;;;;22.98;43.57;101528.25;6108090;23;96984;-85
2021/06/06 03:06:35;;;;;;;;;;;;;;;23.19;43.28;101526.63;6103539;23;100150;-84
2021/06/06 03:09:01;;;;;;;;;;;;;;;23.25;42.82;101523.47;6110942;23;96442;-85
2021/06/06 03:11:28;;;;;;;;;;;;;;;23.23;42.43;101529.97;6113472;23;96551;-84
2021/06/06 03:13:57;;;;;;;;;;;;;;;23.22;42.11;101530.94;6112991;23;96961;-83
2021/06/06 03:16:23;;;;;;;;;;;;;;;23.33;41.68;101529.13;6109266;23;98178;-85
2021/06/06 03:18:51;;;;;;;;;;;;;;;23.59;40.33;101531.69;6107172;23;96760;-84
2021/06/06 03:21:18;;;;;;;;;;;;;;;23.52;40.48;101533.13;6107190;23;96511;-85
2021/06/06 03:23:50;;;;;;;;;;;;;;;23.63;40.28;101535.88;6113840;23;100217;-84
2021/06/06 03:26:17;;;;;;;;;;;;;;;23.62;40.58;101534.16;6111741;23;97106;-85
2021/06/06 03:28:43;;;;;;;;;;;;;;;23.59;40.28;101539.78;6107691;23;96496;-84
2021/06/06 03:31:12;;;;;;;;;;;;;;;23.64;39.72;101534.88;6110892;23;96932;-85
2021/06/06 03:33:45;;;;;;;;;;;;;;;23.76;39.05;101540.19;6112783;23;96910;-85
2021/06/06 03:36:12;;;;;;;;;;;;;;;23.77;39.25;101539.19;6114504;23;97989;-85
2021/06/06 03:38:38;;;;;;;;;;;;;;;23.71;39.32;101542.38;6116094;23;96774;-84
2021/06/06 03:41:06;;;;;;;;;;;;;;;23.78;39.26;101537.38;6116984;23;96289;-85
2021/06/06 03:43:32;;;;;;;;;;;;;;;23.61;39.49;101552.19;6116848;23;99989;-84
2021/06/06 03:45:59;;;;;;;;;;;;;;;23.68;39.39;101547.16;6115950;23;99424;-84
2021/06/06 03:48:26;;;;;;;;;;;;;;;24.01;39.00;101541.81;6114936;23;96556;-84
2021/06/06 03:50:54;;;;;;;;;;;;;;;24.06;38.89;101539.63;6106499;23;96637;-84
2021/06/06 03:53:21;;;;;;;;;;;;;;;23.93;39.24;101538.88;6109558;23;98220;-86
2021/06/06 03:55:48;;;;;;;;;;;;;;;23.96;38.99;101545.88;6115215;23;99158;-85
2021/06/06 03:58:15;;;;;;;;;;;;;;;24.17;38.89;101545.00;6116912;23;96392;-85
2021/06/06 04:00:43;;;;;;;;;;;;;;;24.05;39.31;101551.38;6117216;23;96556;-85
2021/06/06 04:03:10;;;;;;;;;;;;;;;24.36;39.17;101544.41;6114541;23;99581;-86
2021/06/06 04:05:36;;;;;;;;;;;;;;;24.11;40.15;101547.34;6107977;23;101214;-85
2021/06/06 04:08:02;;;;;;;;;;;;;;;24.55;38.78;101547.34;6109557;23;96836;-86
2021/06/06 04:10:28;;;;;;;;;;;;;;;24.45;38.96;101549.09;6103070;23;96574;-85
2021/06/06 04:12:54;;;;;;;;;;;;;;;24.37;39.08;101551.53;6102063;23;99948;-86
2021/06/06 04:15:22;;;;;;;;;;;;;;;24.21;39.58;101542.97;6104553;23;96759;-86
2021/06/06 04:17:50;;;;;;;;;;;;;;;24.37;39.06;101550.69;6105894;23;96580;-86
2021/06/06 04:20:17;;;;;;;;;;;;;;;24.62;38.06;101551.25;6115811;23;96770;-86
2021/06/06 04:22:43;;;;;;;;;;;;;;;24.41;38.64;101552.19;6114017;23;98266;-86
2021/06/06 04:25:10;;;;;;;;;;;;;;;24.60;38.34;101552.41;6114726;23;97892;-85
2021/06/06 04:27:37;;;;;;;;;;;;;;;24.41;38.66;101550.34;6091133;23;96632;-85
2021/06/06 04:30:04;;;;;;;;;;;;;;;24.56;38.17;101553.59;6117107;23;96858;-85
2021/06/06 04:32:32;;;;;;;;;;;;;;;24.64;38.22;101553.84;6118835;23;98046;-85
2021/06/06 04:34:58;;;;;;;;;;;;;;;24.79;38.14;101551.75;6118927;23;100058;-86
2021/06/06 04:37:24;;;;;;;;;;;;;;;24.81;38.08;101556.00;6118901;23;95748;-85
2021/06/06 04:39:50;;;;;;;;;;;;;;;25.05;38.06;101560.41;6119514;23;95977;-85
2021/06/06 04:42:18;;;;;;;;;;;;;;;24.97;37.99;101551.09;6118944;23;100511;-85
2021/06/06 04:44:44;;;;;;;;;;;;;;;24.92;37.99;101556.03;6117982;23;100024;-85
2021/06/06 04:47:10;;;;;;;;;;;;;;;24.95;37.61;101558.47;6118376;23;96046;-85
2021/06/06 04:49:39;;;;;;;;;;;;;;;25.23;37.11;101562.44;6119882;23;95903;-84
2021/06/06 04:52:06;;;;;;;;;;;;;;;25.28;37.18;101559.34;6118481;23;100898;-86
2021/06/06 04:54:32;;;;;;;;;;;;;;;25.71;36.47;101554.72;6093185;23;101106;-86
2021/06/06 04:56:58;;;;;;;;;;;;;;;26.42;35.10;101557.53;6110665;23;96422;-86
2021/06/06 04:59:25;;;;;;;;;;;;;;;26.17;35.15;101556.13;6106542;23;96781;-86
2021/06/06 05:01:51;;;;;;;;;;;;;;;25.89;35.63;101556.81;6103734;23;100216;-85
2021/06/06 05:04:17;;;;;;;;;;;;;;;26.02;35.41;101561.03;6101080;23;99397;-86
2021/06/06 05:06:44;;;;;;;;;;;;;;;26.01;35.92;101553.03;6102676;23;96613;-85
2021/06/06 05:09:11;;;;;;;;;;;;;;;26.09;35.74;101555.94;6103043;23;96790;-85
2021/06/06 05:11:37;;;;;;;;;;;;;;;25.87;35.83;101554.25;6101428;23;96761;-86
2021/06/06 05:14:04;;;;;;;;;;;;;;;25.76;35.97;101557.03;6100397;23;101258;-86
2021/06/06 05:16:30;;;;;;;;;;;;;;;26.16;35.63;101557.13;6099615;23;96622;-88
2021/06/06 05:18:56;;;;;;;;;;;;;;;26.43;35.30;101554.69;6100816;23;96761;-85
2021/06/06 05:21:22;;;;;;;;;;;;;;;26.11;35.73;101559.38;6099120;23;102040;-85
2021/06/06 05:23:50;;;;;;;;;;;;;;;26.15;35.46;101552.69;6100145;23;99933;-86
2021/06/06 05:26:19;;;;;;;;;;;;;;;26.16;35.74;101552.56;6099712;23;96919;-86
2021/06/06 05:28:46;;;;;;;;;;;;;;;26.52;35.16;101555.72;6114062;23;96782;-85
2021/06/06 05:31:15;;;;;;;;;;;;;;;26.59;35.23;101555.03;6104614;23;98400;-86
2021/06/06 05:33:41;;;;;;;;;;;;;;;26.82;34.92;101560.22;6078953;23;98913;-85
2021/06/06 05:36:08;;;;;;;;;;;;;;;26.79;35.11;101557.78;6076578;23;96635;-85
2021/06/06 05:38:35;;;;;;;;;;;;;;;26.84;35.05;101552.81;6086978;23;96788;-85
2021/06/06 05:41:03;;;;;;;;;;;;;;;27.13;35.16;101561.88;6119433;23;99005;-85
2021/06/06 05:43:30;;;;;;;;;;;;;;;27.38;34.61;101566.72;6117319;23;100581;-85
2021/06/06 05:45:57;;;;;;;;;;;;;;;27.12;35.29;101562.84;6103463;23;96545;-85
2021/06/06 05:48:23;;;;;;;;;;;;;;;27.20;35.64;101564.88;6102092;23;96821;-86
2021/06/06 05:50:51;;;;;;;;;;;;;;;27.24;35.65;101561.72;6099569;23;99199;-86
2021/06/06 05:53:17;;;;;;;;;;;;;;;27.45;35.41;101561.56;6101392;23;101266;-85
2021/06/06 05:55:44;;;;;;;;;;;;;;;27.33;35.61;101560.88;6106235;23;96526;-85
2021/06/06 05:58:12;;;;;;;;;;;;;;;27.27;36.14;101566.88;6102329;23;96866;-85
2021/06/06 06:00:39;;;;;;;;;;;;;;;27.78;35.39;101560.28;6104004;23;101409;-84
2021/06/06 06:03:08;;;;;;;;;;;;;;;27.57;35.71;101567.78;6086738;23;97744;-87
2021/06/06 06:05:36;;;;;;;;;;;;;;;27.75;35.13;101558.72;6105586;23;96545;-85
2021/06/06 06:08:10;;;;;;;;;;;;;;;27.57;35.73;101563.16;6108808;23;96810;-85
2021/06/06 06:10:36;;;;;;;;;;;;;;;28.23;35.01;101570.47;6115152;23;98172;-85
2021/06/06 06:13:02;;;;;;;;;;;;;;;28.03;35.17;101559.63;6117109;23;99142;-85
2021/06/06 06:15:30;;;;;;;;;;;;;;;28.29;34.92;101569.91;6112640;23;96379;-86
2021/06/06 06:17:57;;;;;;;;;;;;;;;28.33;34.72;101569.44;6078857;23;96865;-86
2021/06/06 06:20:23;;;;;;;;;;;;;;;28.18;34.96;101570.94;6103430;23;101231;-85
2021/06/06 06:22:54;;;;;;;;;;;;;;;28.24;34.75;101573.03;6104444;23;101916;-86
2021/06/06 06:25:21;;;;;;;;;;;;;;;28.35;34.83;101581.03;6078917;23;96670;-86
2021/06/06 06:27:48;;;;;;;;;;;;;;;28.41;34.75;101579.56;6103267;23;96537;-85
2021/06/06 06:30:21;;;;;;;;;;;;;;;28.58;34.48;101577.91;6101702;23;98992;-86
2021/06/06 06:32:48;;;;;;;;;;;;;;;28.87;33.67;101575.91;6102464;23;98199;-85
2021/06/06 06:35:14;;;;;;;;;;;;;;;29.35;33.62;101580.16;6105040;23;96740;-85
2021/06/06 06:37:54;;;;;;;;;;;;;;;29.52;32.96;101582.91;6106978;23;96535;-85
2021/06/06 06:40:21;;;;;;;;;;;;;;;29.70;32.72;101591.03;6108269;23;99767;-86
2021/06/06 06:42:49;;;;;;;;;;;;;;;29.37;33.41;101584.44;6111480;23;99903;-84
2021/06/06 06:45:17;;;;;;;;;;;;;;;29.77;32.85;101581.22;6087314;23;96669;-86
2021/06/06 06:47:43;;;;;;;;;;;;;;;29.85;33.01;101578.56;6119156;23;96563;-84
2021/06/06 06:50:14;;;;;;;;;;;;;;;30.23;32.74;101582.75;6117177;23;98726;-85
2021/06/06 06:52:40;;;;;;;;;;;;;;;30.19;32.74;101581.38;6116481;23;99602;-85
2021/06/06 06:55:09;;;;;;;;;;;;;;;29.76;33.24;101586.81;6093222;23;96930;-86
2021/06/06 06:57:40;;;;;;;;;;;;;;;29.82;33.49;101586.19;6119458;23;95990;-85
2021/06/06 07:00:11;;;;;;;;;;;;;;;29.77;33.25;101585.81;6118689;23;98272;-86
2021/06/06 07:02:37;;;;;;;;;;;;;;;29.86;33.46;101587.59;6119106;23;97900;-86
2021/06/06 07:05:03;;;;;;;;;;;;;;;29.95;32.87;101584.78;6115676;23;95930;-86
2021/06/06 07:07:32;;;;;;;;;;;;;;;29.87;33.22;101587.41;6091406;23;96494;-85
2021/06/06 07:09:59;;;;;;;;;;;;;;;29.58;33.15;101595.88;6082572;23;98975;-84
2021/06/06 07:12:25;;;;;;;;;;;;;;;29.67;33.00;101596.78;6117289;23;99736;-85
2021/06/06 07:14:55;;;;;;;;;;;;;;;30.04;32.50;101588.44;6093188;23;96197;-86
2021/06/06 07:17:21;;;;;;;;;;;;;;;29.16;33.80;101584.72;6119234;23;96448;-85
2021/06/06 07:19:48;;;;;;;;;;;;;;;30.12;32.48;101588.47;6119471;23;98619;-87
2021/06/06 07:22:14;;;;;;;;;;;;;;;29.76;33.30;101587.69;6119524;23;96812;-85
2021/06/06 07:24:41;;;;;;;;;;;;;;;30.18;32.45;101578.81;6118085;23;96637;-86
2021/06/06 07:27:08;;;;;;;;;;;;;;;30.18;32.73;101584.25;6114174;23;96394;-85
2021/06/06 07:29:35;;;;;;;;;;;;;;;30.07;32.33;101582.63;6114355;23;96932;-86
2021/06/06 07:32:02;;;;;;;;;;;;;;;29.81;31.89;101581.75;6107263;23;99842;-85
2021/06/06 07:34:29;;;;;;;;;;;;;;;29.63;32.62;101577.19;6106130;23;97087;-87
2021/06/06 07:36:57;;;;;;;;;;;;;;;29.73;32.55;101575.22;6106972;23;96883;-87
2021/06/06 07:39:25;;;;;;;;;;;;;;;29.65;33.03;101586.06;6105739;23;101131;-87
2021/06/06 07:41:55;;;;;;;;;;;;;;;29.76;32.79;101578.66;6109393;23;99818;-84
2021/06/06 07:44:21;;;;;;;;;;;;;;;30.18;32.42;101582.38;6112778;23;96304;-86
2021/06/06 07:46:48;;;;;;;;;;;;;;;30.23;32.51;101577.28;6113144;23;96783;-85
2021/06/06 07:49:14;;;;;;;;;;;;;;;30.16;31.95;101578.97;6118941;23;100292;-85
2021/06/06 07:51:40;;;;;;;;;;;;;;;30.56;31.50;101572.03;6119696;23;99556;-84
2021/06/06 07:54:07;;;;;;;;;;;;;;;30.55;31.01;101576.63;6117980;23;95814;-84
2021/06/06 07:56:35;;;;;;;;;;;;;;;30.39;31.28;101576.53;6115559;23;96470;-84
2021/06/06 07:59:03;;;;;;;;;;;;;;;30.39;31.25;101576.53;6115614;23;100443;-87
2021/06/06 08:01:29;;;;;;;;;;;;;;;30.77;30.54;101570.59;6112694;23;99227;-86
2021/06/06 08:03:59;;;;;;;;;;;;;;;31.05;30.10;101581.25;6117944;23;96690;-87
2021/06/06 08:06:25;;;;;;;;;;;;;;;30.91;30.97;101574.53;6114051;23;96234;-86
2021/06/06 08:08:51;;;;;;;;;;;;;;;31.14;29.60;101572.91;6107455;23;98355;-87
2021/06/06 08:11:18;;;;;;;;;;;;;;;31.23;29.05;101571.06;6113416;23;99380;-87
2021/06/06 08:13:45;;;;;;;;;;;;;;;31.24;28.73;101579.06;6109601;23;96492;-86
2021/06/06 08:16:13;;;;;;;;;;;;;;;31.59;27.94;101575.19;6115463;23;96476;-86
2021/06/06 08:18:43;;;;;;;;;;;;;;;31.69;27.37;101583.22;6114238;23;98850;-86
2021/06/06 08:21:13;;;;;;;;;;;;;;;31.56;26.77;101575.50;6117193;23;100336;-87
2021/06/06 08:23:42;;;;;;;;;;;;;;;31.42;26.52;101578.91;6117366;23;96692;-86
2021/06/06 08:26:09;;;;;;;;;;;;;;;31.75;26.23;101574.34;6119841;23;96715;-86
2021/06/06 08:28:35;;;;;;;;;;;;;;;31.14;27.63;101572.91;6120307;23;97112;-80
2021/06/06 08:31:04;;;;;;;;;;;;;;;31.33;27.40;101573.59;6120288;23;98354;-86
2021/06/06 08:33:36;;;;;;;;;;;;;;;31.80;26.83;101580.13;6120022;23;95812;-87
2021/06/06 08:36:08;;;;;;;;;;;;;;;31.76;26.99;101576.03;6120096;23;96094;-82
2021/06/06 08:38:35;;;;;;;;;;;;;;;32.09;26.34;101574.09;6119340;23;97093;-85
2021/06/06 08:41:23;;;;;;;;;;;;;;;32.00;25.92;101567.81;6091854;23;98122;-87
2021/06/06 08:43:51;;;;;;;;;;;;;;;32.21;24.65;101571.88;6090092;23;96442;-87
2021/06/06 08:46:24;;;;;;;;;;;;;;;31.93;24.29;101577.72;6085288;23;96530;-87
2021/06/06 08:48:54;;;;;;;;;;;;;;;32.38;23.56;101570.78;6080983;23;99089;-87
2021/06/06 08:51:25;;;;;;;;;;;;;;;32.00;23.60;101567.81;6082947;23;97650;-87
2021/06/06 08:54:02;;;;;;;;;;;;;;;31.82;23.94;101575.34;6058901;23;96368;-88
2021/06/06 08:59:27;;;;;;;;;;;;;;;31.99;24.48;101579.75;6082665;23;98895;-87
2021/06/06 09:01:55;;;;;;;;;;;;;;;32.44;23.63;101565.47;6063471;23;96611;-87
2021/06/06 09:04:38;;;;;;;;;;;;;;;32.54;23.19;101573.47;6091403;23;95815;-86
2021/06/06 09:07:19;;;;;;;;;;;;;;;32.24;22.89;101566.03;6090367;23;96375;-86
2021/06/06 09:09:49;;;;;;;;;;;;;;;32.61;23.09;101563.53;6087996;23;99719;-85
2021/06/06 09:12:18;;;;;;;;;;;;;;;32.58;23.41;101566.59;6090187;23;96907;-87
2021/06/06 09:17:41;;;;;;;;;;;;;;;32.35;22.79;101566.53;6089008;23;96052;-87
2021/06/06 09:23:12;;;;;;;;;;;;;;;32.99;21.75;101577.38;6089502;23;96441;-85
2021/06/06 09:25:43;;;;;;;;;;;;;;;32.98;21.85;101572.91;6063092;23;96627;-85
2021/06/06 09:28:13;;;;;;;;;;;;;;;32.60;21.38;101564.56;6063684;23;96748;-86
2021/06/06 09:30:50;;;;;;;;;;;;;;;32.65;21.57;101564.84;6082506;23;99341;-86
2021/06/06 09:33:25;;;;;;;;;;;;;;;32.42;21.59;101553.00;6057780;23;96801;-85
2021/06/06 09:35:53;;;;;;;;;;;;;;;32.67;20.63;101562.84;6086198;23;96393;-86
2021/06/06 09:38:24;;;;;;;;;;;;;;;33.04;19.63;101563.97;6088850;23;96028;-86
2021/06/06 09:41:12;;;;;;;;;;;;;;;33.07;19.73;101564.50;6114051;23;99244;-85
2021/06/06 09:43:40;;;;;;;;;;;;;;;32.86;18.84;101571.63;6117807;23;99680;-86
2021/06/06 09:46:10;;;;;;;;;;;;;;;32.96;18.82;101567.63;6115950;23;96384;-86
2021/06/06 09:48:40;;;;;;;;;;;;;;;33.32;18.91;101569.81;6115588;23;97224;-85
2021/06/06 09:51:18;;;;;;;;;;;;;;;33.74;18.46;101566.59;6111184;23;101134;-86
2021/06/06 09:56:37;;;;;;;;;;;;;;;33.29;18.68;101567.44;6112159;23;96577;-87
2021/06/06 09:59:14;;;;;;;;;;;;;;;33.38;18.46;101569.94;6117400;23;96277;-85
2021/06/06 10:01:49;;;;;;;;;;;;;;;33.27;18.46;101567.63;6118409;23;100113;-86
2021/06/06 10:04:20;;;;;;;;;;;;;;;33.45;18.53;101559.94;6114429;23;100556;-87
2021/06/06 10:06:46;;;;;;;;;;;;;;;32.84;19.26;101567.19;6110748;23;96515;-86
2021/06/06 10:09:13;;;;;;;;;;;;;;;32.18;19.75;101564.00;6083769;23;96723;-87
2021/06/06 10:11:49;;;;;;;;;;;;;;;32.12;19.53;101561.94;6111401;23;100608;-85
2021/06/06 10:17:22;;;;;;;;;;;;;;;31.72;20.18;101566.47;6114030;23;95955;-87
2021/06/06 10:19:54;;;;;;;;;;;;;;;31.68;20.71;101559.66;6113906;23;96637;-89
2021/06/06 10:22:22;;;;;;;;;;;;;;;31.49;20.97;101568.16;6116533;23;96632;-86
2021/06/06 10:24:54;;;;;;;;;;;;;;;31.73;20.63;101561.84;6116421;23;98791;-89
2021/06/06 10:27:25;;;;;;;;;;;;;;;31.86;20.62;101557.56;6115045;23;97255;-83
2021/06/06 10:29:55;;;;;;;;;;;;;;;31.38;21.02;101558.41;6110256;23;96577;-84
2021/06/06 10:32:25;;;;;;;;;;;;;;;32.06;20.47;101553.44;6112497;23;98054;-86
2021/06/06 10:34:55;;;;;;;;;;;;;;;32.09;19.89;101559.59;6110383;23;100817;-83
2021/06/06 10:40:06;;;;;;;;;;;;;;;32.04;20.16;101544.53;6111217;23;96679;-86
2021/06/06 10:42:35;;;;;;;;;;;;;;;32.29;19.72;101550.00;6110105;23;96640;-85
2021/06/06 10:45:07;;;;;;;;;;;;;;;32.65;19.75;101545.72;6109237;23;96588;-82
2021/06/06 10:58:56;;;;;;;;;;;;;;;31.82;19.72;101549.91;6115766;23;95961;-90
2021/06/06 11:01:30;;;;;;;;;;;;;;;31.87;19.97;101545.63;6094075;23;96607;-91
2021/06/06 11:04:10;;;;;;;;;;;;;;;32.22;18.95;101538.03;6116956;23;98996;-88
2021/06/06 11:06:38;;;;;;;;;;;;;;;32.03;19.56;101542.81;6118976;23;98270;-89
2021/06/06 11:09:05;;;;;;;;;;;;;;;32.32;19.64;101544.16;6118331;23;96253;-88
2021/06/06 11:11:33;;;;;;;;;;;;;;;32.52;19.12;101541.84;6119971;23;96537;-89
2021/06/06 11:14:02;;;;;;;;;;;;;;;32.64;19.30;101541.25;6117938;23;100020;-87
2021/06/06 11:25:44;;;;;;;;;;;;;;;31.87;18.92;101531.09;5129159;27;96851;-89
2021/06/06 11:28:28;;;;;;;;;;;;;;;31.84;19.00;101542.38;5120607;27;99739;-90
2021/06/06 11:30:56;;;;;;;;;;;;;;;32.19;18.66;101530.19;5133434;27;99657;-89
2021/06/06 11:33:51;;;;;;;;;;;;;;;32.58;18.70;101535.66;5116169;27;96509;-86
2021/06/06 11:42:35;;;;;;;;;;;;;;;31.50;19.42;101531.63;5131804;27;98703;-88
2021/06/06 11:45:05;;;;;;;;;;;;;;;31.60;18.95;101522.25;5118211;27;96845;-87
2021/06/06 11:47:34;;;;;;;;;;;;;;;32.51;18.77;101512.78;5114337;27;96596;-89
2021/06/06 11:50:04;;;;;;;;;;;;;;;32.67;18.84;101512.72;5117919;27;100277;-89
2021/06/06 11:52:38;;;;;;;;;;;;;;;32.33;18.33;101510.31;5126602;27;100147;-89
2021/06/06 11:55:12;;;;;;;;;;;;;;;32.32;18.45;101514.06;5104365;27;96759;-90
2021/06/06 11:57:39;;;;;;;;;;;;;;;32.97;17.64;101516.47;5114932;27;96547;-89
2021/06/06 12:03:07;;;;;;;;;;;;;;;33.80;17.06;101511.88;5109612;27;98893;-90
2021/06/06 12:10:59;;;;;;;;;;;;;;;33.40;17.83;101513.09;5122049;27;98826;-90
2021/06/06 12:27:42;;;;;;;;;;;;;;;33.51;17.42;101496.19;5095131;27;96194;-90
2021/06/06 12:32:56;;;;;;;;;;;;;;;33.79;16.52;101492.88;5112845;27;96585;-87
2021/06/06 12:38:26;;;;;;;;;;;;;;;34.26;16.68;101487.88;5088763;27;97010;-88
2021/06/06 12:43:39;;;;;;;;;;;;;;;34.17;16.27;101496.34;5090805;27;99195;-86
2021/06/06 12:49:02;;;;;;;;;;;;;;;34.67;16.16;101484.53;5099712;27;96578;-89
2021/06/06 12:54:18;;;;;;;;;;;;;;;33.45;16.48;101475.03;5097550;27;98434;-87
2021/06/06 12:56:44;;;;;;;;;;;;;;;33.93;16.76;101473.69;5105991;27;99069;-88
2021/06/06 12:59:12;;;;;;;;;;;;;;;34.83;16.44;101476.09;5093367;27;96784;-88
2021/06/06 13:01:53;;;;;;;;;;;;;;;34.90;16.14;101477.03;5096947;27;96645;-88
2021/06/06 13:07:04;;;;;;;;;;;;;;;34.80;15.95;101476.50;5088111;27;96889;-91
2021/06/06 13:09:44;;;;;;;;;;;;;;;34.64;16.60;101472.09;5097440;27;96541;-90
2021/06/06 13:12:16;;;;;;;;;;;;;;;33.92;16.66;101476.63;5100541;27;96438;-90
2021/06/06 13:20:32;;;;;;;;;;;;;;;34.06;16.48;101486.72;5079604;27;96817;-89
2021/06/06 13:23:00;;;;;;;;;;;;;;;34.41;16.39;101476.84;5090728;27;96717;-89
2021/06/06 13:25:31;;;;;;;;;;;;;;;34.38;16.42;101483.59;5118810;27;98097;-88
2021/06/06 13:27:58;;;;;;;;;;;;;;;34.05;16.84;101486.91;5094486;27;96937;-87
2021/06/06 13:30:27;;;;;;;;;;;;;;;33.96;17.37;101488.88;5093057;27;96726;-89
2021/06/06 13:32:56;;;;;;;;;;;;;;;34.43;16.13;101484.91;5103830;27;96788;-88
2021/06/06 13:35:22;;;;;;;;;;;;;;;34.07;16.81;101482.91;5099481;27;96890;-89
2021/06/06 13:40:53;;;;;;;;;;;;;;;34.59;16.00;101476.44;5098570;27;96670;-89
2021/06/06 13:43:20;;;;;;;;;;;;;;;35.03;14.65;101482.66;5100290;27;96117;-88
2021/06/06 13:45:48;;;;;;;;;;;;;;;35.87;15.04;101474.47;5103542;27;98537;-88
2021/06/06 13:48:16;;;;;;;;;;;;;;;36.13;15.55;101473.78;5093678;27;99108;-89
2021/06/06 13:50:43;;;;;;;;;;;;;;;35.88;14.94;101474.28;5097905;27;96365;-87
2021/06/06 13:53:12;;;;;;;;;;;;;;;35.51;15.32;101475.47;5099088;27;96087;-89
2021/06/06 13:58:44;;;;;;;;;;;;;;;35.26;16.05;101473.34;5086174;27;98764;-89
2021/06/06 14:01:10;;;;;;;;;;;;;;;35.30;15.65;101466.44;5091102;27;96738;-87
2021/06/06 14:03:46;;;;;;;;;;;;;;;35.52;15.69;101468.06;5092390;27;96937;-89
2021/06/06 14:06:15;;;;;;;;;;;;;;;36.67;14.38;101460.91;5086560;27;99743;-88
2021/06/06 14:11:36;;;;;;;;;;;;;;;40.75;11.88;101465.19;5084425;27;96871;-90
2021/06/06 14:14:15;;;;;;;;;;;;;;;42.19;10.11;101456.25;5093943;27;96772;-88
2021/06/06 14:16:41;;;;;;;;;;;;;;;42.52;9.68;101463.88;5086099;27;99280;-89
2021/06/06 14:19:09;;;;;;;;;;;;;;;44.72;8.54;101465.03;5076545;27;99927;-88
2021/06/06 14:21:37;;;;;;;;;;;;;;;44.96;7.87;101463.59;5071395;27;97121;-87